Pazifik — ZDKS7 — position and weather

sailwx.info

Track history (hours):
 
Tides and Currents Weather Stations Pressure Air Temp Water Temp Dewpoint Dewpoint Depression Visibility Wind Speed Wind Dir Waves Ship Positions

Pazifik

Last reported at 2017-Aug-19 10:58 UTC. Time now 2017-Aug-19 11:09 UTC.
Position N 50°38' W 001°00'.

Length 205 m; draft 9.3 m.

Type: Ship (hazmat cat A). MMSI: 236111796.

Date/timePositionNaut miles runAvg speedWind from/ knotsBaromVisibWave heightAir tempDewpointWater temp
2017-Aug-19 10:58N 50°38' W 001°00'0 0.0
2017-Aug-19 10:28N 50°38' W 001°01'0 0.1
2017-Aug-19 10:01N 50°38' W 001°00'0 0.3
2017-Aug-19 09:31N 50°38' W 001°00'0 0.2
2017-Aug-19 09:01N 50°38' W 001°00'0 0.1
2017-Aug-19 08:28N 50°38' W 001°00'0 0.0
2017-Aug-19 08:01N 50°38' W 001°00'0 0.0
2017-Aug-19 07:31N 50°38' W 001°00'0 0.0
2017-Aug-19 07:01N 50°38' W 001°00'0 0.0
2017-Aug-19 06:31N 50°38' W 001°00'0 0.0
2017-Aug-19 06:01N 50°38' W 001°00'0 0.0
2017-Aug-19 05:31N 50°38' W 001°00'0 0.1
2017-Aug-19 05:01N 50°38' W 001°00'0 0.0
2017-Aug-19 04:31N 50°38' W 001°00'0 0.1
2017-Aug-19 04:01N 50°38' W 001°00'0 0.1
2017-Aug-19 03:31N 50°38' W 001°00'0 0.0
2017-Aug-19 03:01N 50°38' W 001°00'0 0.0
2017-Aug-19 02:31N 50°38' W 001°00'0 0.0
2017-Aug-19 02:01N 50°38' W 001°00'0 0.1
2017-Aug-19 01:31N 50°38' W 001°00'0 0.1
2017-Aug-19 00:58N 50°38' W 001°00'0 0.1
2017-Aug-19 00:28N 50°38' W 001°00'0 0.2
2017-Aug-19 00:01N 50°38' W 001°00'0 0.0
2017-Aug-18 23:31N 50°38' W 001°00'0 0.1
2017-Aug-18 23:01N 50°38' W 001°00'0 0.1
2017-Aug-18 22:31N 50°38' W 001°00'0 0.0
2017-Aug-18 22:01N 50°38' W 001°00'0 0.1
2017-Aug-18 21:28N 50°38' W 001°00'0 0.0
2017-Aug-18 20:58N 50°38' W 001°00'0 0.1
2017-Aug-18 20:31N 50°38' W 001°00'0 0.0
2017-Aug-18 19:55N 50°38' W 001°00'0 0.1
2017-Aug-18 19:31N 50°38' W 001°00'0 0.0
2017-Aug-18 18:58N 50°38' W 001°00'0 0.0
2017-Aug-18 18:31N 50°38' W 001°00'0 0.1
2017-Aug-18 18:01N 50°38' W 001°00'0 0.0
2017-Aug-18 17:31N 50°38' W 001°00'0 0.1
2017-Aug-18 17:01N 50°38' W 001°00'0 0.0
2017-Aug-18 16:31N 50°38' W 001°00'0 0.0
2017-Aug-18 15:55N 50°38' W 001°00'0 0.0
2017-Aug-18 15:31N 50°38' W 001°00'0 0.0
2017-Aug-18 15:01N 50°38' W 001°00'0 0.0
2017-Aug-18 14:01N 50°38' W 001°00'0 0.0
2017-Aug-18 13:31N 50°38' W 001°00'0 0.0
2017-Aug-18 12:58N 50°38' W 001°00'0 0.0
2017-Aug-18 12:31N 50°38' W 001°00'0 0.3
2017-Aug-18 11:58N 50°38' W 001°00'0 0.1
2017-Aug-18 11:31N 50°38' W 001°00'0 0.0
2017-Aug-18 10:58N 50°38' W 001°01'0 0.0
2017-Aug-18 10:28N 50°38' W 001°00'0 0.1
2017-Aug-18 10:01N 50°38' W 001°00'1 2.3
2017-Aug-18 09:30N 50°39' W 000°60'4 8.1
2017-Aug-18 09:00N 50°43' W 001°01'611.8
2017-Aug-18 08:30N 50°46' W 001°10'611.6
2017-Aug-18 08:01N 50°47' W 001°19'4 7.7
2017-Aug-18 07:31N 50°51' W 001°20'0 0.3
2017-Aug-18 06:58N 50°50' W 001°20'0 0.0
2017-Aug-18 06:28N 50°50' W 001°20'0 0.0
2017-Aug-18 05:58N 50°50' W 001°20'0 0.0
2017-Aug-17 12:43N 50°50' W 001°20'0 0.0
2017-Aug-17 12:19N 50°51' W 001°20'0 0.0
2017-Aug-17 11:58N 50°50' W 001°20'0 0.0
2017-Aug-16 11:52N 50°51' W 001°20'1 1.6
2017-Aug-16 11:31N 50°50' W 001°19'3 6.1
2017-Aug-16 11:00N 50°47' W 001°19'611.8
2017-Aug-16 10:30N 50°46' W 001°10'714.0
2017-Aug-16 10:00N 50°43' W 000°60'3 7.0
2017-Aug-16 09:30N 50°39' W 000°60'1 3.0
2017-Aug-16 09:01N 50°38' W 001°01'1 1.7
2017-Aug-16 08:30N 50°38' W 001°02'0 0.0
2017-Aug-16 08:00N 50°38' W 001°02'0 0.0
2017-Aug-16 07:30N 50°38' W 001°02'0 0.0
2017-Aug-16 07:00N 50°38' W 001°02'0 0.0
2017-Aug-16 06:30N 50°38' W 001°02'0 0.0
2017-Aug-16 06:00N 50°38' W 001°02'0 0.0
2017-Aug-16 05:30N 50°38' W 001°02'0 0.1
2017-Aug-16 05:00N 50°38' W 001°02'0 0.3
2017-Aug-16 04:30N 50°38' W 001°02'0 0.1
2017-Aug-16 04:00N 50°38' W 001°02'0 0.0
2017-Aug-16 03:30N 50°38' W 001°02'0 0.0
2017-Aug-16 03:00N 50°38' W 001°02'0 0.0
2017-Aug-16 02:30N 50°38' W 001°02'0 0.0
2017-Aug-16 02:00N 50°38' W 001°02'0 0.0
2017-Aug-16 01:27N 50°38' W 001°02'0 0.0
2017-Aug-16 01:00N 50°38' W 001°02'0 0.0
2017-Aug-16 00:30N 50°38' W 001°02'0 0.0
2017-Aug-16 00:00N 50°38' W 001°02'0 0.0
2017-Aug-15 23:30N 50°38' W 001°02'0 0.0
2017-Aug-15 23:00N 50°38' W 001°02'0 0.0
2017-Aug-15 22:27N 50°38' W 001°02'0 0.2
2017-Aug-15 22:00N 50°38' W 001°02'0 0.3
2017-Aug-15 21:30N 50°38' W 001°02'0 0.1
2017-Aug-15 21:00N 50°38' W 001°02'0 0.0
2017-Aug-15 20:30N 50°38' W 001°02'0 0.0
2017-Aug-15 20:00N 50°38' W 001°02'0 0.0
2017-Aug-15 19:30N 50°38' W 001°02'0 0.0
2017-Aug-15 19:00N 50°38' W 001°02'0 0.0
2017-Aug-15 18:30N 50°38' W 001°02'0 0.1
2017-Aug-15 18:00N 50°38' W 001°02'0 0.3
2017-Aug-15 17:30N 50°38' W 001°02'0 0.3
2017-Aug-15 17:00N 50°38' W 001°02'0 0.1
2017-Aug-15 16:30N 50°38' W 001°02'0 0.1
2017-Aug-15 15:57N 50°38' W 001°02'0 0.0
2017-Aug-15 15:30N 50°38' W 001°02'0 0.0
2017-Aug-15 15:00N 50°38' W 001°02'0 0.0
2017-Aug-15 14:30N 50°38' W 001°02'0 0.0
2017-Aug-15 14:00N 50°38' W 001°02'0 0.0
2017-Aug-15 13:27N 50°38' W 001°02'0 0.0
2017-Aug-15 13:00N 50°38' W 001°02'0 0.0
2017-Aug-15 12:30N 50°38' W 001°02'0 0.0
2017-Aug-15 12:00N 50°38' W 001°02'0 0.0
2017-Aug-15 11:30N 50°38' W 001°02'0 0.1
2017-Aug-15 11:00N 50°38' W 001°02'0 0.0
2017-Aug-15 10:30N 50°38' W 001°02'0 0.1
2017-Aug-15 10:00N 50°38' W 001°02'0 0.3
2017-Aug-15 09:30N 50°38' W 001°02'0 0.1
2017-Aug-15 09:00N 50°38' W 001°02'0 0.0
2017-Aug-15 08:30N 50°38' W 001°02'0 0.0
2017-Aug-15 08:00N 50°38' W 001°02'0 0.0
2017-Aug-15 07:30N 50°38' W 001°02'0 0.0
2017-Aug-15 07:00N 50°38' W 001°02'0 0.0
2017-Aug-15 06:30N 50°38' W 001°02'0 0.0
2017-Aug-15 06:00N 50°38' W 001°02'0 0.0
2017-Aug-15 05:30N 50°38' W 001°02'0 0.0
2017-Aug-15 05:00N 50°38' W 001°02'0 0.0
2017-Aug-15 04:30N 50°38' W 001°02'0 0.1
2017-Aug-15 04:00N 50°38' W 001°02'0 0.2
2017-Aug-15 03:30N 50°38' W 001°02'0 0.2
2017-Aug-15 03:00N 50°38' W 001°02'0 0.1
2017-Aug-15 02:30N 50°38' W 001°02'0 0.1
2017-Aug-15 02:00N 50°38' W 001°02'0 0.0
2017-Aug-15 01:30N 50°38' W 001°02'0 0.0
2017-Aug-15 01:00N 50°38' W 001°02'0 0.0
2017-Aug-15 00:30N 50°38' W 001°02'0 0.0
2017-Aug-15 00:00N 50°38' W 001°02'0 0.0
2017-Aug-14 23:30N 50°38' W 001°02'0 0.0
2017-Aug-14 23:00N 50°38' W 001°02'0 0.0
2017-Aug-14 22:30N 50°38' W 001°02'0 0.1
2017-Aug-14 22:00N 50°38' W 001°02'0 0.2
2017-Aug-14 21:30N 50°38' W 001°02'0 0.2
2017-Aug-14 21:00N 50°38' W 001°02'0 0.1
2017-Aug-14 20:30N 50°38' W 001°02'0 0.0
2017-Aug-14 20:00N 50°38' W 001°02'0 0.0
2017-Aug-14 19:30N 50°38' W 001°02'0 0.0
2017-Aug-14 19:00N 50°38' W 001°02'0 0.0
2017-Aug-14 18:30N 50°38' W 001°02'0 0.0
2017-Aug-14 18:00N 50°38' W 001°02'0 0.0
2017-Aug-14 17:30N 50°38' W 001°02'0 0.0
2017-Aug-14 17:00N 50°38' W 001°02'0 0.0
2017-Aug-14 16:30N 50°38' W 001°02'0 0.0
2017-Aug-14 16:00N 50°38' W 001°02'0 0.1
2017-Aug-14 15:30N 50°38' W 001°02'0 0.2
2017-Aug-14 15:00N 50°38' W 001°02'0 0.2
2017-Aug-14 14:30N 50°38' W 001°02'0 0.1
2017-Aug-14 13:57N 50°38' W 001°02'0 0.0
2017-Aug-14 13:30N 50°38' W 001°02'0 0.0
2017-Aug-14 13:00N 50°38' W 001°02'0 0.0
2017-Aug-14 12:30N 50°38' W 001°02'0 0.0
2017-Aug-14 12:00N 50°38' W 001°02'0 0.0
2017-Aug-14 11:30N 50°38' W 001°02'0 0.0
2017-Aug-14 11:00N 50°38' W 001°02'0 0.7
2017-Aug-14 10:31N 50°38' W 001°01'4 8.3
2017-Aug-14 10:00N 50°42' W 000°58'611.3
2017-Aug-14 09:31N 50°45' W 001°06'714.0
2017-Aug-14 09:01N 50°46' W 001°16'5 9.2
2017-Aug-14 08:30N 50°51' W 001°20'0 0.0
2017-Aug-12 18:55N 50°51' W 001°20'1 2.6
2017-Aug-12 18:31N 50°50' W 001°19'3 6.4
2017-Aug-12 18:00N 50°47' W 001°18'2 3.1
2017-Aug-12 17:29N 50°47' W 001°15'0 0.1
2017-Aug-12 16:59N 50°47' W 001°15'0 0.1
2017-Aug-12 16:29N 50°47' W 001°15'0 0.0
2017-Aug-12 15:59N 50°47' W 001°15'0 0.0
2017-Aug-12 15:29N 50°47' W 001°15'0 0.0
2017-Aug-12 14:59N 50°47' W 001°15'0 0.1
2017-Aug-12 14:29N 50°47' W 001°15'0 0.4
2017-Aug-12 13:59N 50°47' W 001°15'0 0.1
2017-Aug-12 13:29N 50°47' W 001°15'0 0.0
2017-Aug-12 12:59N 50°47' W 001°15'0 0.0
2017-Aug-12 12:29N 50°47' W 001°15'0 0.0
2017-Aug-12 11:59N 50°47' W 001°15'0 0.0
2017-Aug-12 11:29N 50°47' W 001°15'0 0.0
2017-Aug-12 10:59N 50°47' W 001°15'0 0.0
2017-Aug-12 10:29N 50°47' W 001°15'0 0.0
2017-Aug-12 10:00N 50°47' W 001°15'1 1.9
2017-Aug-12 09:30N 50°47' W 001°13'1 2.2
2017-Aug-12 09:00N 50°46' W 001°13'4 8.6
2017-Aug-12 08:31N 50°49' W 001°18'2 4.5
2017-Aug-12 08:00N 50°51' W 001°20'0 0.0
2017-Aug-11 00:28N 50°51' W 001°20'1 2.3
2017-Aug-11 00:01N 50°50' W 001°19'3 6.7
2017-Aug-10 23:30N 50°46' W 001°18'5 9.7
2017-Aug-10 23:01N 50°46' W 001°10'4 7.3
2017-Aug-10 22:31N 50°44' W 001°05'3 6.9
2017-Aug-10 22:01N 50°43' W 001°00'3 5.6
2017-Aug-10 21:31N 50°40' W 000°59'2 3.2
2017-Aug-10 20:59N 50°39' W 001°01'0 0.0
2017-Aug-10 20:29N 50°39' W 001°01'0 0.0
2017-Aug-10 19:59N 50°39' W 001°01'0 0.0
2017-Aug-10 19:29N 50°39' W 001°01'0 0.3
2017-Aug-10 18:59N 50°39' W 001°01'0 0.2
2017-Aug-10 18:29N 50°39' W 001°01'0 0.0
2017-Aug-10 17:59N 50°39' W 001°01'0 0.0
2017-Aug-10 17:29N 50°39' W 001°01'0 0.0
2017-Aug-10 16:59N 50°39' W 001°01'0 0.0
2017-Aug-10 16:29N 50°39' W 001°01'0 0.0
2017-Aug-10 15:59N 50°39' W 001°01'0 0.0
2017-Aug-10 15:29N 50°39' W 001°01'0 0.0
2017-Aug-10 14:59N 50°39' W 001°01'0 0.0
2017-Aug-10 14:29N 50°39' W 001°01'0 0.0
2017-Aug-10 13:59N 50°39' W 001°01'0 0.0
2017-Aug-10 13:29N 50°39' W 001°01'0 0.0
2017-Aug-10 12:59N 50°39' W 001°01'0 0.1
2017-Aug-10 12:29N 50°39' W 001°01'0 0.2
2017-Aug-10 11:59N 50°39' W 001°01'0 0.2
2017-Aug-10 11:29N 50°39' W 001°01'0 0.0
2017-Aug-10 10:59N 50°39' W 001°01'0 0.0
2017-Aug-10 10:29N 50°39' W 001°01'0 0.0
2017-Aug-10 09:59N 50°39' W 001°01'0 0.0
2017-Aug-10 09:29N 50°39' W 001°01'0 0.1
2017-Aug-10 08:59N 50°39' W 001°01'0 0.0
2017-Aug-10 08:29N 50°39' W 001°01'0 0.1
2017-Aug-10 07:59N 50°39' W 001°01'0 0.1
2017-Aug-10 07:29N 50°39' W 001°01'0 0.1
2017-Aug-10 06:59N 50°39' W 001°01'0 0.0
2017-Aug-10 06:29N 50°39' W 001°01'0 0.1
2017-Aug-10 05:59N 50°39' W 001°01'0 0.1
2017-Aug-10 05:29N 50°39' W 001°01'0 0.0
2017-Aug-10 04:59N 50°39' W 001°01'0 0.0
2017-Aug-10 04:29N 50°39' W 001°01'0 0.0
2017-Aug-10 03:59N 50°39' W 001°01'0 0.0
2017-Aug-10 03:29N 50°39' W 001°01'0 0.0
2017-Aug-10 02:59N 50°39' W 001°01'0 0.0
2017-Aug-10 02:29N 50°39' W 001°01'0 0.0
2017-Aug-10 01:59N 50°39' W 001°01'0 0.0
2017-Aug-10 01:29N 50°39' W 001°01'0 0.0
2017-Aug-10 00:59N 50°39' W 001°01'0 0.0
2017-Aug-10 00:29N 50°39' W 001°01'0 0.1
2017-Aug-09 23:59N 50°39' W 001°01'0 0.0
2017-Aug-09 23:29N 50°39' W 001°01'0 0.2
2017-Aug-09 22:59N 50°39' W 001°01'0 0.1
2017-Aug-09 22:29N 50°39' W 001°01'0 0.1
2017-Aug-09 21:59N 50°39' W 001°01'0 0.0
2017-Aug-09 21:29N 50°39' W 001°01'0 0.0
2017-Aug-09 20:59N 50°39' W 001°01'0 0.0
2017-Aug-09 20:29N 50°39' W 001°01'0 0.0
2017-Aug-09 19:59N 50°39' W 001°01'0 0.0
2017-Aug-09 19:29N 50°39' W 001°01'0 0.1
2017-Aug-09 18:59N 50°39' W 001°01'0 0.0
2017-Aug-09 18:29N 50°39' W 001°01'0 0.1
2017-Aug-09 17:59N 50°39' W 001°01'0 0.0
2017-Aug-09 17:29N 50°39' W 001°01'0 0.0
2017-Aug-09 16:59N 50°39' W 001°01'0 0.0
2017-Aug-09 16:29N 50°39' W 001°01'0 0.0
2017-Aug-09 15:59N 50°39' W 001°01'0 0.0
2017-Aug-09 15:29N 50°39' W 001°01'0 0.0
2017-Aug-09 14:59N 50°39' W 001°01'0 0.0
2017-Aug-09 14:29N 50°39' W 001°01'0 0.0
2017-Aug-09 13:59N 50°39' W 001°01'0 0.0
2017-Aug-09 13:29N 50°39' W 001°01'0 0.0
2017-Aug-09 12:59N 50°39' W 001°01'0 0.0
2017-Aug-09 12:29N 50°39' W 001°01'0 0.1
2017-Aug-09 11:59N 50°39' W 001°01'0 0.0
2017-Aug-09 11:29N 50°39' W 001°01'0 0.4
2017-Aug-09 10:59N 50°39' W 001°01'  
Track history (hours):
 
Tides and Currents Weather Stations Pressure Air Temp Water Temp Dewpoint Dewpoint Depression Visibility Wind Speed Wind Dir Waves Ship Positions

Pazifik

Last reported at 2017-Aug-19 10:58 UTC. Time now 2017-Aug-19 11:09 UTC.
Position N 50°38' W 001°00'.

Length 205 m; draft 9.3 m.

Type: Ship (hazmat cat A). MMSI: 236111796.

Date/timePositionNaut miles runAvg speedWind from/ knotsBaromVisibWave heightAir tempDewpointWater temp
2017-Aug-19 10:58N 50°38' W 001°00'0 0.0
2017-Aug-19 10:28N 50°38' W 001°01'0 0.1
2017-Aug-19 10:01N 50°38' W 001°00'0 0.3
2017-Aug-19 09:31N 50°38' W 001°00'0 0.2
2017-Aug-19 09:01N 50°38' W 001°00'0 0.1
2017-Aug-19 08:28N 50°38' W 001°00'0 0.0
2017-Aug-19 08:01N 50°38' W 001°00'0 0.0
2017-Aug-19 07:31N 50°38' W 001°00'0 0.0
2017-Aug-19 07:01N 50°38' W 001°00'0 0.0
2017-Aug-19 06:31N 50°38' W 001°00'0 0.0
2017-Aug-19 06:01N 50°38' W 001°00'0 0.0
2017-Aug-19 05:31N 50°38' W 001°00'0 0.1
2017-Aug-19 05:01N 50°38' W 001°00'0 0.0
2017-Aug-19 04:31N 50°38' W 001°00'0 0.1
2017-Aug-19 04:01N 50°38' W 001°00'0 0.1
2017-Aug-19 03:31N 50°38' W 001°00'0 0.0
2017-Aug-19 03:01N 50°38' W 001°00'0 0.0
2017-Aug-19 02:31N 50°38' W 001°00'0 0.0
2017-Aug-19 02:01N 50°38' W 001°00'0 0.1
2017-Aug-19 01:31N 50°38' W 001°00'0 0.1
2017-Aug-19 00:58N 50°38' W 001°00'0 0.1
2017-Aug-19 00:28N 50°38' W 001°00'0 0.2
2017-Aug-19 00:01N 50°38' W 001°00'0 0.0
2017-Aug-18 23:31N 50°38' W 001°00'0 0.1
2017-Aug-18 23:01N 50°38' W 001°00'0 0.1
2017-Aug-18 22:31N 50°38' W 001°00'0 0.0
2017-Aug-18 22:01N 50°38' W 001°00'0 0.1
2017-Aug-18 21:28N 50°38' W 001°00'0 0.0
2017-Aug-18 20:58N 50°38' W 001°00'0 0.1
2017-Aug-18 20:31N 50°38' W 001°00'0 0.0
2017-Aug-18 19:55N 50°38' W 001°00'0 0.1
2017-Aug-18 19:31N 50°38' W 001°00'0 0.0
2017-Aug-18 18:58N 50°38' W 001°00'0 0.0
2017-Aug-18 18:31N 50°38' W 001°00'0 0.1
2017-Aug-18 18:01N 50°38' W 001°00'0 0.0
2017-Aug-18 17:31N 50°38' W 001°00'0 0.1
2017-Aug-18 17:01N 50°38' W 001°00'0 0.0
2017-Aug-18 16:31N 50°38' W 001°00'0 0.0
2017-Aug-18 15:55N 50°38' W 001°00'0 0.0
2017-Aug-18 15:31N 50°38' W 001°00'0 0.0
2017-Aug-18 15:01N 50°38' W 001°00'0 0.0
2017-Aug-18 14:01N 50°38' W 001°00'0 0.0
2017-Aug-18 13:31N 50°38' W 001°00'0 0.0
2017-Aug-18 12:58N 50°38' W 001°00'0 0.0
2017-Aug-18 12:31N 50°38' W 001°00'0 0.3
2017-Aug-18 11:58N 50°38' W 001°00'0 0.1
2017-Aug-18 11:31N 50°38' W 001°00'0 0.0
2017-Aug-18 10:58N 50°38' W 001°01'0 0.0
2017-Aug-18 10:28N 50°38' W 001°00'0 0.1
2017-Aug-18 10:01N 50°38' W 001°00'1 2.3
2017-Aug-18 09:30N 50°39' W 000°60'4 8.1
2017-Aug-18 09:00N 50°43' W 001°01'611.8
2017-Aug-18 08:30N 50°46' W 001°10'611.6
2017-Aug-18 08:01N 50°47' W 001°19'4 7.7
2017-Aug-18 07:31N 50°51' W 001°20'0 0.3
2017-Aug-18 06:58N 50°50' W 001°20'0 0.0
2017-Aug-18 06:28N 50°50' W 001°20'0 0.0
2017-Aug-18 05:58N 50°50' W 001°20'0 0.0
2017-Aug-17 12:43N 50°50' W 001°20'0 0.0
2017-Aug-17 12:19N 50°51' W 001°20'0 0.0
2017-Aug-17 11:58N 50°50' W 001°20'0 0.0
2017-Aug-16 11:52N 50°51' W 001°20'1 1.6
2017-Aug-16 11:31N 50°50' W 001°19'3 6.1
2017-Aug-16 11:00N 50°47' W 001°19'611.8
2017-Aug-16 10:30N 50°46' W 001°10'714.0
2017-Aug-16 10:00N 50°43' W 000°60'3 7.0
2017-Aug-16 09:30N 50°39' W 000°60'1 3.0
2017-Aug-16 09:01N 50°38' W 001°01'1 1.7
2017-Aug-16 08:30N 50°38' W 001°02'0 0.0
2017-Aug-16 08:00N 50°38' W 001°02'0 0.0
2017-Aug-16 07:30N 50°38' W 001°02'0 0.0
2017-Aug-16 07:00N 50°38' W 001°02'0 0.0
2017-Aug-16 06:30N 50°38' W 001°02'0 0.0
2017-Aug-16 06:00N 50°38' W 001°02'0 0.0
2017-Aug-16 05:30N 50°38' W 001°02'0 0.1
2017-Aug-16 05:00N 50°38' W 001°02'0 0.3
2017-Aug-16 04:30N 50°38' W 001°02'0 0.1
2017-Aug-16 04:00N 50°38' W 001°02'0 0.0
2017-Aug-16 03:30N 50°38' W 001°02'0 0.0
2017-Aug-16 03:00N 50°38' W 001°02'0 0.0
2017-Aug-16 02:30N 50°38' W 001°02'0 0.0
2017-Aug-16 02:00N 50°38' W 001°02'0 0.0
2017-Aug-16 01:27N 50°38' W 001°02'0 0.0
2017-Aug-16 01:00N 50°38' W 001°02'0 0.0
2017-Aug-16 00:30N 50°38' W 001°02'0 0.0
2017-Aug-16 00:00N 50°38' W 001°02'0 0.0
2017-Aug-15 23:30N 50°38' W 001°02'0 0.0
2017-Aug-15 23:00N 50°38' W 001°02'0 0.0
2017-Aug-15 22:27N 50°38' W 001°02'0 0.2
2017-Aug-15 22:00N 50°38' W 001°02'0 0.3
2017-Aug-15 21:30N 50°38' W 001°02'0 0.1
2017-Aug-15 21:00N 50°38' W 001°02'0 0.0
2017-Aug-15 20:30N 50°38' W 001°02'0 0.0
2017-Aug-15 20:00N 50°38' W 001°02'0 0.0
2017-Aug-15 19:30N 50°38' W 001°02'0 0.0
2017-Aug-15 19:00N 50°38' W 001°02'0 0.0
2017-Aug-15 18:30N 50°38' W 001°02'0 0.1
2017-Aug-15 18:00N 50°38' W 001°02'0 0.3
2017-Aug-15 17:30N 50°38' W 001°02'0 0.3
2017-Aug-15 17:00N 50°38' W 001°02'0 0.1
2017-Aug-15 16:30N 50°38' W 001°02'0 0.1
2017-Aug-15 15:57N 50°38' W 001°02'0 0.0
2017-Aug-15 15:30N 50°38' W 001°02'0 0.0
2017-Aug-15 15:00N 50°38' W 001°02'0 0.0
2017-Aug-15 14:30N 50°38' W 001°02'0 0.0
2017-Aug-15 14:00N 50°38' W 001°02'0 0.0
2017-Aug-15 13:27N 50°38' W 001°02'0 0.0
2017-Aug-15 13:00N 50°38' W 001°02'0 0.0
2017-Aug-15 12:30N 50°38' W 001°02'0 0.0
2017-Aug-15 12:00N 50°38' W 001°02'0 0.0
2017-Aug-15 11:30N 50°38' W 001°02'0 0.1
2017-Aug-15 11:00N 50°38' W 001°02'0 0.0
2017-Aug-15 10:30N 50°38' W 001°02'0 0.1
2017-Aug-15 10:00N 50°38' W 001°02'0 0.3
2017-Aug-15 09:30N 50°38' W 001°02'0 0.1
2017-Aug-15 09:00N 50°38' W 001°02'0 0.0
2017-Aug-15 08:30N 50°38' W 001°02'0 0.0
2017-Aug-15 08:00N 50°38' W 001°02'0 0.0
2017-Aug-15 07:30N 50°38' W 001°02'0 0.0
2017-Aug-15 07:00N 50°38' W 001°02'0 0.0
2017-Aug-15 06:30N 50°38' W 001°02'0 0.0
2017-Aug-15 06:00N 50°38' W 001°02'0 0.0
2017-Aug-15 05:30N 50°38' W 001°02'0 0.0
2017-Aug-15 05:00N 50°38' W 001°02'0 0.0
2017-Aug-15 04:30N 50°38' W 001°02'0 0.1
2017-Aug-15 04:00N 50°38' W 001°02'0 0.2
2017-Aug-15 03:30N 50°38' W 001°02'0 0.2
2017-Aug-15 03:00N 50°38' W 001°02'0 0.1
2017-Aug-15 02:30N 50°38' W 001°02'0 0.1
2017-Aug-15 02:00N 50°38' W 001°02'0 0.0
2017-Aug-15 01:30N 50°38' W 001°02'0 0.0
2017-Aug-15 01:00N 50°38' W 001°02'0 0.0
2017-Aug-15 00:30N 50°38' W 001°02'0 0.0
2017-Aug-15 00:00N 50°38' W 001°02'0 0.0
2017-Aug-14 23:30N 50°38' W 001°02'0 0.0
2017-Aug-14 23:00N 50°38' W 001°02'0 0.0
2017-Aug-14 22:30N 50°38' W 001°02'0 0.1
2017-Aug-14 22:00N 50°38' W 001°02'0 0.2
2017-Aug-14 21:30N 50°38' W 001°02'0 0.2
2017-Aug-14 21:00N 50°38' W 001°02'0 0.1
2017-Aug-14 20:30N 50°38' W 001°02'0 0.0
2017-Aug-14 20:00N 50°38' W 001°02'0 0.0
2017-Aug-14 19:30N 50°38' W 001°02'0 0.0
2017-Aug-14 19:00N 50°38' W 001°02'0 0.0
2017-Aug-14 18:30N 50°38' W 001°02'0 0.0
2017-Aug-14 18:00N 50°38' W 001°02'0 0.0
2017-Aug-14 17:30N 50°38' W 001°02'0 0.0
2017-Aug-14 17:00N 50°38' W 001°02'0 0.0
2017-Aug-14 16:30N 50°38' W 001°02'0 0.0
2017-Aug-14 16:00N 50°38' W 001°02'0 0.1
2017-Aug-14 15:30N 50°38' W 001°02'0 0.2
2017-Aug-14 15:00N 50°38' W 001°02'0 0.2
2017-Aug-14 14:30N 50°38' W 001°02'0 0.1
2017-Aug-14 13:57N 50°38' W 001°02'0 0.0
2017-Aug-14 13:30N 50°38' W 001°02'0 0.0
2017-Aug-14 13:00N 50°38' W 001°02'0 0.0
2017-Aug-14 12:30N 50°38' W 001°02'0 0.0
2017-Aug-14 12:00N 50°38' W 001°02'0 0.0
2017-Aug-14 11:30N 50°38' W 001°02'0 0.0
2017-Aug-14 11:00N 50°38' W 001°02'0 0.7
2017-Aug-14 10:31N 50°38' W 001°01'4 8.3
2017-Aug-14 10:00N 50°42' W 000°58'611.3
2017-Aug-14 09:31N 50°45' W 001°06'714.0
2017-Aug-14 09:01N 50°46' W 001°16'5 9.2
2017-Aug-14 08:30N 50°51' W 001°20'0 0.0
2017-Aug-12 18:55N 50°51' W 001°20'1 2.6
2017-Aug-12 18:31N 50°50' W 001°19'3 6.4
2017-Aug-12 18:00N 50°47' W 001°18'2 3.1
2017-Aug-12 17:29N 50°47' W 001°15'0 0.1
2017-Aug-12 16:59N 50°47' W 001°15'0 0.1
2017-Aug-12 16:29N 50°47' W 001°15'0 0.0
2017-Aug-12 15:59N 50°47' W 001°15'0 0.0
2017-Aug-12 15:29N 50°47' W 001°15'0 0.0
2017-Aug-12 14:59N 50°47' W 001°15'0 0.1
2017-Aug-12 14:29N 50°47' W 001°15'0 0.4
2017-Aug-12 13:59N 50°47' W 001°15'0 0.1
2017-Aug-12 13:29N 50°47' W 001°15'0 0.0
2017-Aug-12 12:59N 50°47' W 001°15'0 0.0
2017-Aug-12 12:29N 50°47' W 001°15'0 0.0
2017-Aug-12 11:59N 50°47' W 001°15'0 0.0
2017-Aug-12 11:29N 50°47' W 001°15'0 0.0
2017-Aug-12 10:59N 50°47' W 001°15'0 0.0
2017-Aug-12 10:29N 50°47' W 001°15'0 0.0
2017-Aug-12 10:00N 50°47' W 001°15'1 1.9
2017-Aug-12 09:30N 50°47' W 001°13'1 2.2
2017-Aug-12 09:00N 50°46' W 001°13'4 8.6
2017-Aug-12 08:31N 50°49' W 001°18'2 4.5
2017-Aug-12 08:00N 50°51' W 001°20'0 0.0
2017-Aug-11 00:28N 50°51' W 001°20'1 2.3
2017-Aug-11 00:01N 50°50' W 001°19'3 6.7
2017-Aug-10 23:30N 50°46' W 001°18'5 9.7
2017-Aug-10 23:01N 50°46' W 001°10'4 7.3
2017-Aug-10 22:31N 50°44' W 001°05'3 6.9
2017-Aug-10 22:01N 50°43' W 001°00'3 5.6
2017-Aug-10 21:31N 50°40' W 000°59'2 3.2
2017-Aug-10 20:59N 50°39' W 001°01'0 0.0
2017-Aug-10 20:29N 50°39' W 001°01'0 0.0
2017-Aug-10 19:59N 50°39' W 001°01'0 0.0
2017-Aug-10 19:29N 50°39' W 001°01'0 0.3
2017-Aug-10 18:59N 50°39' W 001°01'0 0.2
2017-Aug-10 18:29N 50°39' W 001°01'0 0.0
2017-Aug-10 17:59N 50°39' W 001°01'0 0.0
2017-Aug-10 17:29N 50°39' W 001°01'0 0.0
2017-Aug-10 16:59N 50°39' W 001°01'0 0.0
2017-Aug-10 16:29N 50°39' W 001°01'0 0.0
2017-Aug-10 15:59N 50°39' W 001°01'0 0.0
2017-Aug-10 15:29N 50°39' W 001°01'0 0.0
2017-Aug-10 14:59N 50°39' W 001°01'0 0.0
2017-Aug-10 14:29N 50°39' W 001°01'0 0.0
2017-Aug-10 13:59N 50°39' W 001°01'0 0.0
2017-Aug-10 13:29N 50°39' W 001°01'0 0.0
2017-Aug-10 12:59N 50°39' W 001°01'0 0.1
2017-Aug-10 12:29N 50°39' W 001°01'0 0.2
2017-Aug-10 11:59N 50°39' W 001°01'0 0.2
2017-Aug-10 11:29N 50°39' W 001°01'0 0.0
2017-Aug-10 10:59N 50°39' W 001°01'0 0.0
2017-Aug-10 10:29N 50°39' W 001°01'0 0.0
2017-Aug-10 09:59N 50°39' W 001°01'0 0.0
2017-Aug-10 09:29N 50°39' W 001°01'0 0.1
2017-Aug-10 08:59N 50°39' W 001°01'0 0.0
2017-Aug-10 08:29N 50°39' W 001°01'0 0.1
2017-Aug-10 07:59N 50°39' W 001°01'0 0.1
2017-Aug-10 07:29N 50°39' W 001°01'0 0.1
2017-Aug-10 06:59N 50°39' W 001°01'0 0.0
2017-Aug-10 06:29N 50°39' W 001°01'0 0.1
2017-Aug-10 05:59N 50°39' W 001°01'0 0.1
2017-Aug-10 05:29N 50°39' W 001°01'0 0.0
2017-Aug-10 04:59N 50°39' W 001°01'0 0.0
2017-Aug-10 04:29N 50°39' W 001°01'0 0.0
2017-Aug-10 03:59N 50°39' W 001°01'0 0.0
2017-Aug-10 03:29N 50°39' W 001°01'0 0.0
2017-Aug-10 02:59N 50°39' W 001°01'0 0.0
2017-Aug-10 02:29N 50°39' W 001°01'0 0.0
2017-Aug-10 01:59N 50°39' W 001°01'0 0.0
2017-Aug-10 01:29N 50°39' W 001°01'0 0.0
2017-Aug-10 00:59N 50°39' W 001°01'0 0.0
2017-Aug-10 00:29N 50°39' W 001°01'0 0.1
2017-Aug-09 23:59N 50°39' W 001°01'0 0.0
2017-Aug-09 23:29N 50°39' W 001°01'0 0.2
2017-Aug-09 22:59N 50°39' W 001°01'0 0.1
2017-Aug-09 22:29N 50°39' W 001°01'0 0.1
2017-Aug-09 21:59N 50°39' W 001°01'0 0.0
2017-Aug-09 21:29N 50°39' W 001°01'0 0.0
2017-Aug-09 20:59N 50°39' W 001°01'0 0.0
2017-Aug-09 20:29N 50°39' W 001°01'0 0.0
2017-Aug-09 19:59N 50°39' W 001°01'0 0.0
2017-Aug-09 19:29N 50°39' W 001°01'0 0.1
2017-Aug-09 18:59N 50°39' W 001°01'0 0.0
2017-Aug-09 18:29N 50°39' W 001°01'0 0.1
2017-Aug-09 17:59N 50°39' W 001°01'0 0.0
2017-Aug-09 17:29N 50°39' W 001°01'0 0.0
2017-Aug-09 16:59N 50°39' W 001°01'0 0.0
2017-Aug-09 16:29N 50°39' W 001°01'0 0.0
2017-Aug-09 15:59N 50°39' W 001°01'0 0.0
2017-Aug-09 15:29N 50°39' W 001°01'0 0.0
2017-Aug-09 14:59N 50°39' W 001°01'0 0.0
2017-Aug-09 14:29N 50°39' W 001°01'0 0.0
2017-Aug-09 13:59N 50°39' W 001°01'0 0.0
2017-Aug-09 13:29N 50°39' W 001°01'0 0.0
2017-Aug-09 12:59N 50°39' W 001°01'0 0.0
2017-Aug-09 12:29N 50°39' W 001°01'0 0.1
2017-Aug-09 11:59N 50°39' W 001°01'0 0.0
2017-Aug-09 11:29N 50°39' W 001°01'0 0.4
2017-Aug-09 10:59N 50°39' W 001°01'  

Dump ship's entire track history